createdAt,value
2022-12-12T00:00:30.823Z,99.90
2022-12-12T00:01:36.856Z,99.90
2022-12-12T00:02:39.670Z,99.90
2022-12-12T00:03:41.614Z,99.90
2022-12-12T00:04:43.277Z,99.90
2022-12-12T00:05:44.952Z,99.90
2022-12-12T00:06:46.643Z,99.90
2022-12-12T00:07:48.433Z,99.90
2022-12-12T00:08:50.603Z,99.90
2022-12-12T00:09:52.191Z,99.90
2022-12-12T00:11:58.369Z,99.90
2022-12-12T00:13:00.188Z,99.90
2022-12-12T00:14:01.816Z,99.90
2022-12-12T00:15:04.623Z,99.90
2022-12-12T00:16:08.381Z,99.90
2022-12-12T00:17:10.047Z,99.90
2022-12-12T00:18:11.633Z,99.90
2022-12-12T00:19:13.326Z,99.90
2022-12-12T00:20:15.021Z,99.90
2022-12-12T00:21:20.961Z,99.90
2022-12-12T00:22:22.832Z,99.90
2022-12-12T00:23:26.318Z,99.90
2022-12-12T00:24:27.921Z,99.90
2022-12-12T00:25:29.517Z,99.90
2022-12-12T00:26:33.069Z,99.90
2022-12-12T00:27:34.899Z,99.90
2022-12-12T00:28:36.574Z,99.90
2022-12-12T00:29:38.198Z,99.90
2022-12-12T00:30:39.794Z,99.90
2022-12-12T00:31:41.415Z,99.90
2022-12-12T00:32:43.091Z,99.90
2022-12-12T00:33:46.648Z,99.90
2022-12-12T00:34:48.286Z,99.90
2022-12-12T00:35:54.547Z,99.90
2022-12-12T00:36:56.147Z,99.90
2022-12-12T00:37:57.766Z,99.90
2022-12-12T00:39:00.081Z,99.90
2022-12-12T00:40:02.050Z,99.90
2022-12-12T00:41:05.780Z,99.90
2022-12-12T00:42:07.486Z,99.90
2022-12-12T00:43:09.453Z,99.90
2022-12-12T00:44:11.305Z,99.90
2022-12-12T00:45:13.034Z,99.90
2022-12-12T00:46:16.619Z,99.90
2022-12-12T00:47:18.283Z,99.90
2022-12-12T00:48:20.671Z,99.90
2022-12-12T00:49:23.387Z,99.90
2022-12-12T00:50:25.063Z,99.90
2022-12-12T00:51:28.379Z,99.90
2022-12-12T00:52:29.994Z,99.90
2022-12-12T00:53:31.628Z,99.90
2022-12-12T00:54:33.270Z,99.90
2022-12-12T00:55:34.908Z,99.90
2022-12-12T00:56:36.620Z,99.90
2022-12-12T00:57:38.525Z,99.20
2022-12-12T00:58:40.176Z,97.40
2022-12-12T00:59:41.770Z,99.90
2022-12-12T01:00:43.753Z,99.90
2022-12-12T01:01:46.541Z,99.90
2022-12-12T01:02:48.518Z,99.90
2022-12-12T01:03:51.107Z,99.90
2022-12-12T01:04:52.723Z,99.90
2022-12-12T01:05:54.299Z,99.90
2022-12-12T01:06:55.909Z,99.90
2022-12-12T01:07:57.590Z,99.90
2022-12-12T01:08:59.611Z,99.90
2022-12-12T01:10:01.281Z,99.90
2022-12-12T01:11:03.185Z,99.90
2022-12-12T01:12:04.830Z,99.90
2022-12-12T01:13:06.525Z,99.90
2022-12-12T01:14:08.536Z,99.90
2022-12-12T01:15:11.611Z,99.90
2022-12-12T01:16:14.324Z,99.90
2022-12-12T01:17:16.020Z,99.90
2022-12-12T01:18:18.394Z,99.90
2022-12-12T01:19:20.211Z,99.90
2022-12-12T01:20:26.024Z,99.90
2022-12-12T01:21:28.047Z,99.90
2022-12-12T01:22:30.623Z,99.90
2022-12-12T01:23:32.208Z,99.90
2022-12-12T01:24:34.009Z,99.90
2022-12-12T01:25:35.879Z,99.90
2022-12-12T01:26:37.610Z,99.90
2022-12-12T01:27:39.373Z,99.90
2022-12-12T01:28:42.522Z,99.90
2022-12-12T01:29:44.127Z,99.90
2022-12-12T01:30:45.763Z,99.90
2022-12-12T01:31:47.499Z,99.90
2022-12-12T01:32:49.507Z,99.90
2022-12-12T01:33:51.543Z,99.90
2022-12-12T01:34:53.172Z,99.90
2022-12-12T01:35:54.823Z,99.90
2022-12-12T01:36:56.424Z,99.90
2022-12-12T01:37:58.013Z,99.90
2022-12-12T01:39:00.606Z,99.90
2022-12-12T01:40:02.796Z,99.90
2022-12-12T01:41:04.511Z,99.90
2022-12-12T01:42:15.321Z,99.90
2022-12-12T01:43:19.388Z,99.90
2022-12-12T01:44:52.735Z,99.90
2022-12-12T01:46:01.167Z,99.90
2022-12-12T01:47:02.773Z,99.90
2022-12-12T01:48:05.552Z,99.90
2022-12-12T01:49:15.684Z,99.90
2022-12-12T01:50:17.292Z,99.90
2022-12-12T01:51:23.382Z,99.90
2022-12-12T01:52:32.519Z,99.90
2022-12-12T01:53:34.775Z,99.90
2022-12-12T01:54:41.624Z,99.90
2022-12-12T01:55:43.295Z,99.90
2022-12-12T01:56:46.539Z,99.90
2022-12-12T01:57:51.918Z,99.90
2022-12-12T01:58:55.267Z,99.90
2022-12-12T01:59:58.489Z,99.90
2022-12-12T02:01:01.023Z,99.90
2022-12-12T02:02:03.238Z,99.90
2022-12-12T02:03:04.946Z,99.90
2022-12-12T02:04:07.828Z,99.90
2022-12-12T02:05:18.496Z,99.90
2022-12-12T02:06:26.652Z,99.90
2022-12-12T02:07:28.285Z,99.90
2022-12-12T02:08:30.651Z,99.90
2022-12-12T02:09:33.579Z,99.90
2022-12-12T02:10:35.508Z,99.90
2022-12-12T02:11:47.079Z,99.90
2022-12-12T02:12:48.755Z,99.90
2022-12-12T02:13:50.992Z,99.90
2022-12-12T02:14:53.792Z,99.90
2022-12-12T02:16:20.484Z,99.90
2022-12-12T02:17:56.019Z,99.90
2022-12-12T02:19:22.018Z,99.90
2022-12-12T02:21:04.951Z,99.90
2022-12-12T02:22:21.969Z,99.90
2022-12-12T02:23:45.770Z,99.90
2022-12-12T02:25:15.390Z,99.90
2022-12-12T02:26:53.361Z,99.90
2022-12-12T02:27:57.678Z,99.90
2022-12-12T02:29:38.348Z,99.90
2022-12-12T02:31:10.766Z,99.90
2022-12-12T02:32:27.197Z,99.90
2022-12-12T02:33:37.599Z,99.90
2022-12-12T02:34:56.889Z,99.90
2022-12-12T02:36:11.585Z,99.90
2022-12-12T02:37:25.566Z,99.90
2022-12-12T02:38:42.057Z,99.90
2022-12-12T02:40:15.135Z,99.90
2022-12-12T02:41:35.878Z,99.90
2022-12-12T02:42:53.805Z,99.90
2022-12-12T02:44:16.928Z,99.90
2022-12-12T02:45:30.370Z,99.90
2022-12-12T02:46:46.181Z,99.90
2022-12-12T02:47:57.626Z,99.90
2022-12-12T02:49:13.319Z,99.90
2022-12-12T02:50:20.571Z,99.90
2022-12-12T02:51:23.499Z,99.90
2022-12-12T02:52:25.669Z,99.90
2022-12-12T02:53:27.943Z,99.90
2022-12-12T02:54:29.764Z,99.90
2022-12-12T02:55:35.097Z,99.90
2022-12-12T02:56:43.803Z,50.90
2022-12-12T02:57:45.969Z,92.10
2022-12-12T02:58:47.614Z,90.10
2022-12-12T02:59:55.188Z,99.90
2022-12-12T03:01:29.937Z,99.90
2022-12-12T03:02:37.141Z,99.90
2022-12-12T03:04:30.721Z,99.90
2022-12-12T03:06:03.980Z,99.90
2022-12-12T03:07:45.704Z,99.90
2022-12-12T03:09:24.849Z,99.90
2022-12-12T03:10:34.650Z,93.40
2022-12-12T03:11:52.677Z,79.00
2022-12-12T03:13:16.818Z,78.30
2022-12-12T03:14:46.675Z,82.20
2022-12-12T03:16:09.562Z,96.80
2022-12-12T03:17:22.663Z,82.10
2022-12-12T03:18:50.905Z,98.90
2022-12-12T03:20:17.637Z,93.30
2022-12-12T03:21:48.942Z,73.10
2022-12-12T03:23:02.403Z,64.70
2022-12-12T03:24:10.532Z,66.20
2022-12-12T03:25:17.933Z,31.90
2022-12-12T03:26:28.535Z,73.40
2022-12-12T03:27:53.468Z,93.50
2022-12-12T03:29:18.200Z,74.80
2022-12-12T03:30:20.430Z,51.50
2022-12-12T03:31:28.089Z,78.10
2022-12-12T03:32:41.190Z,92.80
2022-12-12T03:33:48.785Z,99.90
2022-12-12T03:34:58.854Z,99.90
2022-12-12T03:36:28.286Z,94.00
2022-12-12T03:37:44.226Z,91.40
2022-12-12T03:38:57.095Z,99.90
2022-12-12T03:40:03.456Z,99.90
2022-12-12T03:41:12.353Z,99.90
2022-12-12T03:42:22.523Z,99.90
2022-12-12T03:43:35.164Z,99.90
2022-12-12T03:44:47.970Z,99.90
2022-12-12T03:46:20.422Z,99.90
2022-12-12T03:47:29.797Z,99.90
2022-12-12T03:48:36.728Z,99.90
2022-12-12T03:49:52.569Z,99.90
2022-12-12T03:51:09.669Z,99.90
2022-12-12T03:52:22.072Z,99.90
2022-12-12T03:53:54.576Z,99.90
2022-12-12T03:55:20.121Z,99.90
2022-12-12T03:56:24.165Z,99.90
2022-12-12T03:57:40.895Z,99.90
2022-12-12T03:59:02.428Z,99.90
2022-12-12T04:00:07.831Z,99.90
2022-12-12T04:01:11.910Z,99.90
2022-12-12T04:02:19.702Z,99.90
2022-12-12T04:03:25.765Z,99.90
2022-12-12T04:04:38.999Z,99.90
2022-12-12T04:06:10.526Z,99.90
2022-12-12T04:07:33.278Z,99.90
2022-12-12T04:08:35.382Z,99.90
2022-12-12T04:09:55.881Z,99.90
2022-12-12T04:11:34.998Z,99.90
2022-12-12T04:13:00.851Z,99.90
2022-12-12T04:14:10.504Z,99.90
2022-12-12T04:15:41.258Z,99.90
2022-12-12T04:16:46.240Z,99.90
2022-12-12T04:18:06.093Z,99.90
2022-12-12T04:19:43.781Z,99.90
2022-12-12T04:21:35.921Z,99.90
2022-12-12T04:23:04.148Z,99.90
2022-12-12T04:24:21.264Z,99.90
2022-12-12T04:25:28.749Z,99.90
2022-12-12T04:26:41.670Z,99.90
2022-12-12T04:27:50.719Z,99.90
2022-12-12T04:29:02.929Z,99.90
2022-12-12T04:30:11.230Z,99.90
2022-12-12T04:31:15.747Z,99.90
2022-12-12T04:32:31.559Z,99.90
2022-12-12T04:33:43.644Z,99.90
2022-12-12T04:35:16.958Z,99.90
2022-12-12T04:36:22.736Z,99.90
2022-12-12T04:37:32.589Z,99.90
2022-12-12T04:38:35.982Z,99.90
2022-12-12T04:39:38.920Z,99.90
2022-12-12T04:40:44.321Z,99.90
2022-12-12T04:41:48.409Z,99.90
2022-12-12T04:43:10.078Z,99.90
2022-12-12T04:44:14.063Z,99.90
2022-12-12T04:45:21.660Z,99.90
2022-12-12T04:46:26.187Z,99.90
2022-12-12T04:47:31.630Z,99.90
2022-12-12T04:48:49.790Z,99.90
2022-12-12T04:49:55.511Z,99.90
2022-12-12T04:50:59.275Z,99.90
2022-12-12T04:52:06.194Z,99.90
2022-12-12T04:53:18.338Z,80.30
2022-12-12T04:54:39.400Z,98.20
2022-12-12T04:55:46.537Z,99.90
2022-12-12T04:56:54.324Z,99.90
2022-12-12T04:57:56.552Z,99.90
2022-12-12T04:58:58.834Z,99.90
2022-12-12T05:00:00.804Z,99.90
2022-12-12T05:01:10.657Z,99.90
2022-12-12T05:02:20.347Z,99.90
2022-12-12T05:03:49.413Z,99.90
2022-12-12T05:05:15.555Z,99.90
2022-12-12T05:06:22.181Z,99.90
2022-12-12T05:07:40.716Z,99.90
2022-12-12T05:08:45.891Z,80.40
2022-12-12T05:09:48.266Z,56.40
2022-12-12T05:10:56.919Z,78.50
2022-12-12T05:11:58.711Z,75.20
2022-12-12T05:13:01.201Z,49.50
2022-12-12T05:14:02.954Z,38.60
2022-12-12T05:15:05.524Z,35.30
2022-12-12T05:16:32.363Z,34.10
2022-12-12T05:17:45.784Z,12.70
2022-12-12T05:18:48.104Z,14.70
2022-12-12T05:19:49.709Z,9.60
2022-12-12T05:20:51.426Z,16.60
2022-12-12T05:21:53.034Z,29.20
2022-12-12T05:22:54.668Z,9.20
2022-12-12T05:23:56.267Z,13.50
2022-12-12T05:24:57.864Z,13.30
2022-12-12T05:25:59.500Z,25.40
2022-12-12T05:27:01.401Z,1.00
2022-12-12T05:28:03.143Z,1.00
2022-12-12T05:29:07.761Z,1.00
2022-12-12T05:30:10.185Z,1.00
2022-12-12T05:31:11.842Z,1.00
2022-12-12T05:32:13.526Z,1.80
2022-12-12T05:33:15.171Z,24.10
2022-12-12T05:34:16.859Z,36.40
2022-12-12T05:35:18.883Z,12.30
2022-12-12T05:36:21.518Z,1.00
2022-12-12T05:37:23.171Z,1.00
2022-12-12T05:38:24.788Z,1.00
2022-12-12T05:39:26.383Z,1.00
2022-12-12T05:40:28.000Z,1.00
2022-12-12T05:41:29.592Z,1.00
2022-12-12T05:42:31.204Z,1.00
2022-12-12T05:43:33.214Z,1.00
2022-12-12T05:44:34.851Z,1.00
2022-12-12T05:45:36.451Z,6.70
2022-12-12T05:46:38.054Z,12.40
2022-12-12T05:47:39.699Z,24.20
2022-12-12T05:48:41.285Z,32.90
2022-12-12T05:49:42.916Z,58.00
2022-12-12T05:50:44.904Z,36.60
2022-12-12T05:51:46.492Z,8.10
2022-12-12T05:52:48.142Z,8.20
2022-12-12T05:53:49.755Z,1.00
2022-12-12T05:54:51.394Z,10.40
2022-12-12T05:55:53.048Z,1.30
2022-12-12T05:56:54.665Z,17.10
2022-12-12T05:57:56.325Z,11.50
2022-12-12T05:58:57.948Z,1.00
2022-12-12T05:59:59.552Z,1.00
2022-12-12T06:01:04.334Z,1.00
2022-12-12T06:02:05.966Z,1.00
2022-12-12T06:03:07.643Z,4.70
2022-12-12T06:04:09.307Z,6.40
2022-12-12T06:05:11.356Z,46.10
2022-12-12T06:06:13.331Z,94.70
2022-12-12T06:07:14.995Z,96.50
2022-12-12T06:08:19.835Z,97.20
2022-12-12T06:09:25.322Z,97.70
2022-12-12T06:10:28.199Z,80.20
2022-12-12T06:11:44.907Z,85.50
2022-12-12T06:12:46.619Z,72.90
2022-12-12T06:13:48.302Z,79.60
2022-12-12T06:14:49.954Z,79.00
2022-12-12T06:15:51.782Z,82.70
2022-12-12T06:16:53.375Z,85.70
2022-12-12T06:17:55.060Z,98.60
2022-12-12T06:18:56.950Z,99.90
2022-12-12T06:19:58.569Z,99.90
2022-12-12T06:21:08.159Z,99.90
2022-12-12T06:22:09.864Z,99.90
2022-12-12T06:23:11.543Z,99.90
2022-12-12T06:24:13.418Z,99.90
2022-12-12T06:25:15.310Z,99.90
2022-12-12T06:26:18.949Z,98.50
2022-12-12T06:27:20.640Z,55.70
2022-12-12T06:28:22.318Z,7.30
2022-12-12T06:29:23.966Z,13.60
2022-12-12T06:30:25.604Z,20.00
2022-12-12T06:31:27.300Z,20.20
2022-12-12T06:32:28.928Z,49.70
2022-12-12T06:33:32.439Z,81.40
2022-12-12T06:34:34.138Z,99.90
2022-12-12T06:35:35.747Z,99.90
2022-12-12T06:36:37.782Z,99.90
2022-12-12T06:37:40.543Z,99.90
2022-12-12T06:38:42.611Z,98.60
2022-12-12T06:39:44.443Z,87.80
2022-12-12T06:40:46.024Z,40.50
2022-12-12T06:41:47.706Z,20.60
2022-12-12T06:42:49.396Z,1.00
2022-12-12T06:43:51.606Z,1.00
2022-12-12T06:44:53.244Z,1.00
2022-12-12T06:46:01.165Z,1.00
2022-12-12T06:47:02.816Z,1.00
2022-12-12T06:48:04.584Z,1.00
2022-12-12T06:49:09.688Z,1.00
2022-12-12T06:50:11.631Z,1.00
2022-12-12T06:51:19.215Z,1.00
2022-12-12T06:52:20.880Z,1.00
2022-12-12T06:53:22.499Z,1.00
2022-12-12T06:54:24.134Z,1.00
2022-12-12T06:55:25.774Z,1.00
2022-12-12T06:56:28.013Z,1.00
2022-12-12T06:57:29.642Z,1.00
2022-12-12T06:58:31.293Z,7.30
2022-12-12T06:59:32.989Z,21.90
2022-12-12T07:00:34.943Z,47.00
2022-12-12T07:01:36.630Z,31.50
2022-12-12T07:02:38.383Z,28.70
2022-12-12T07:03:40.221Z,39.60
2022-12-12T07:04:41.823Z,84.40
2022-12-12T07:05:45.293Z,99.70
2022-12-12T07:06:46.886Z,99.90
2022-12-12T07:07:48.534Z,99.90
2022-12-12T07:08:51.822Z,99.90
2022-12-12T07:09:53.476Z,99.90
2022-12-12T07:10:55.773Z,99.90
2022-12-12T07:11:57.372Z,99.90
2022-12-12T07:12:58.991Z,99.90
2022-12-12T07:14:03.624Z,99.90
2022-12-12T07:15:05.631Z,99.90
2022-12-12T07:16:07.875Z,99.90
2022-12-12T07:17:09.571Z,99.90
2022-12-12T07:18:11.360Z,99.90
2022-12-12T07:19:13.025Z,99.90
2022-12-12T07:20:14.662Z,99.90
2022-12-12T07:21:19.336Z,99.90
2022-12-12T07:22:20.950Z,99.90
2022-12-12T07:23:22.630Z,99.90
2022-12-12T07:24:24.224Z,99.90
2022-12-12T07:25:25.823Z,99.90
2022-12-12T07:26:27.509Z,99.90
2022-12-12T07:27:29.163Z,99.90
2022-12-12T07:28:31.006Z,99.90
2022-12-12T07:29:32.806Z,99.90
2022-12-12T07:30:34.866Z,99.90
2022-12-12T07:31:36.738Z,99.90
2022-12-12T07:32:38.404Z,99.90
2022-12-12T07:33:44.124Z,99.90
2022-12-12T07:34:46.338Z,99.90
2022-12-12T07:35:48.010Z,99.90
2022-12-12T07:36:49.664Z,99.90
2022-12-12T07:37:51.549Z,99.90
2022-12-12T07:38:53.278Z,99.90
2022-12-12T07:39:54.855Z,99.90
2022-12-12T07:40:56.487Z,99.90
2022-12-12T07:41:58.165Z,99.90
2022-12-12T07:43:00.291Z,99.90
2022-12-12T07:44:01.955Z,99.90
2022-12-12T07:45:03.984Z,99.90
2022-12-12T07:46:10.263Z,95.90
2022-12-12T07:47:11.986Z,92.90
2022-12-12T07:48:14.905Z,43.80
2022-12-12T07:49:16.526Z,15.60
2022-12-12T07:50:18.571Z,1.00
2022-12-12T07:51:20.564Z,13.30
2022-12-12T07:52:22.241Z,26.20
2022-12-12T07:53:23.868Z,39.70
2022-12-12T07:54:25.529Z,50.80
2022-12-12T07:55:27.201Z,62.60
2022-12-12T07:56:28.859Z,83.70
2022-12-12T07:57:31.281Z,99.90
2022-12-12T07:58:33.408Z,98.70
2022-12-12T07:59:35.116Z,99.90
2022-12-12T08:00:36.757Z,99.90
2022-12-12T08:01:39.134Z,99.90
2022-12-12T08:02:41.007Z,99.90
2022-12-12T08:03:44.394Z,99.90
2022-12-12T08:04:46.308Z,99.90
2022-12-12T08:05:47.975Z,99.90
2022-12-12T08:06:52.737Z,99.90
2022-12-12T08:07:59.642Z,99.90
2022-12-12T08:09:01.284Z,84.80
2022-12-12T08:10:03.545Z,57.50
2022-12-12T08:11:07.408Z,80.60
2022-12-12T08:12:09.089Z,61.70
2022-12-12T08:13:10.748Z,80.60
2022-12-12T08:14:13.221Z,27.50
2022-12-12T08:15:17.096Z,13.70
2022-12-12T08:16:24.720Z,17.50
2022-12-12T08:17:26.500Z,1.00
2022-12-12T08:18:28.562Z,1.00
2022-12-12T08:19:30.232Z,1.00
2022-12-12T08:20:31.889Z,1.00
2022-12-12T08:21:33.997Z,4.40
2022-12-12T08:22:35.642Z,43.90
2022-12-12T08:23:38.097Z,75.50
2022-12-12T08:24:39.924Z,44.80
2022-12-12T08:25:41.512Z,53.20
2022-12-12T08:26:43.791Z,54.20
2022-12-12T08:27:45.392Z,29.30
2022-12-12T08:28:49.306Z,3.00
2022-12-12T08:29:54.653Z,1.00
2022-12-12T08:30:56.350Z,1.00
2022-12-12T08:31:58.241Z,1.00
2022-12-12T08:33:04.916Z,1.00
2022-12-12T08:34:09.703Z,1.00
2022-12-12T08:35:11.688Z,1.00
2022-12-12T08:36:20.901Z,1.00
2022-12-12T08:37:22.511Z,1.00
2022-12-12T08:38:24.359Z,1.00
2022-12-12T08:39:26.000Z,1.00
2022-12-12T08:40:27.612Z,1.00
2022-12-12T08:41:29.180Z,1.00
2022-12-12T08:42:30.782Z,1.00
2022-12-12T08:43:32.488Z,1.00
2022-12-12T08:44:34.317Z,1.00
2022-12-12T08:45:37.698Z,1.00
2022-12-12T08:46:39.448Z,1.00
2022-12-12T08:47:41.151Z,1.00
2022-12-12T08:48:43.003Z,1.00
2022-12-12T08:49:44.679Z,1.00
2022-12-12T08:50:46.274Z,1.00
2022-12-12T08:51:47.921Z,1.00
2022-12-12T08:52:49.591Z,1.00
2022-12-12T08:53:53.813Z,1.00
2022-12-12T08:54:55.527Z,1.00
2022-12-12T08:55:57.147Z,1.00
2022-12-12T08:56:58.744Z,1.00
2022-12-12T08:58:00.386Z,1.00
2022-12-12T08:59:02.950Z,1.00
2022-12-12T09:00:05.807Z,1.00
2022-12-12T09:01:12.256Z,1.00
2022-12-12T09:02:14.019Z,1.00
2022-12-12T09:03:17.503Z,1.00
2022-12-12T09:04:19.103Z,1.00
2022-12-12T09:05:20.954Z,1.00
2022-12-12T09:06:24.334Z,1.00
2022-12-12T09:07:26.617Z,1.00
2022-12-12T09:08:28.253Z,1.00
2022-12-12T09:09:30.220Z,1.00
2022-12-12T09:10:32.152Z,1.00
2022-12-12T09:11:33.777Z,1.00
2022-12-12T09:12:41.275Z,1.00
2022-12-12T09:13:43.757Z,1.00
2022-12-12T09:14:45.364Z,1.00
2022-12-12T09:15:51.193Z,1.00
2022-12-12T09:16:53.322Z,1.00
2022-12-12T09:17:54.912Z,1.00
2022-12-12T09:18:56.978Z,1.00
2022-12-12T09:19:58.560Z,1.00
2022-12-12T09:21:00.419Z,1.00
2022-12-12T09:22:03.560Z,1.00
2022-12-12T09:23:05.228Z,2.90
2022-12-12T09:24:07.536Z,14.20
2022-12-12T09:25:10.363Z,10.00
2022-12-12T09:26:12.283Z,17.40
2022-12-12T09:27:14.077Z,2.70
2022-12-12T09:28:17.438Z,1.00
2022-12-12T09:29:19.019Z,1.00
2022-12-12T09:30:21.891Z,1.00
2022-12-12T09:31:23.602Z,16.90
2022-12-12T09:32:25.608Z,35.60
2022-12-12T09:33:27.674Z,53.40
2022-12-12T09:34:29.323Z,56.50
2022-12-12T09:35:31.310Z,94.50
2022-12-12T09:36:33.175Z,99.90
2022-12-12T09:37:35.005Z,99.90
2022-12-12T09:38:36.686Z,99.90
2022-12-12T09:39:38.300Z,99.90
2022-12-12T09:40:52.751Z,99.90
2022-12-12T09:41:54.532Z,99.90
2022-12-12T09:42:56.488Z,99.90
2022-12-12T09:44:11.248Z,99.90
2022-12-12T09:45:13.521Z,99.90
2022-12-12T09:46:34.969Z,99.90
2022-12-12T09:47:40.441Z,99.90
2022-12-12T09:48:46.780Z,99.90
2022-12-12T09:49:54.184Z,99.90
2022-12-12T09:50:55.843Z,99.90
2022-12-12T09:51:58.533Z,99.90
2022-12-12T09:53:02.990Z,99.90
2022-12-12T09:54:05.255Z,99.90
2022-12-12T09:55:35.772Z,99.90
2022-12-12T09:57:15.511Z,99.90
2022-12-12T09:58:57.129Z,99.90
2022-12-12T10:00:12.290Z,99.90
2022-12-12T10:01:32.455Z,99.90
2022-12-12T10:03:05.192Z,99.90
2022-12-12T10:04:20.175Z,99.90
2022-12-12T10:05:36.372Z,99.90
2022-12-12T10:07:01.879Z,99.90
2022-12-12T10:08:14.255Z,99.90
2022-12-12T10:09:46.627Z,99.90
2022-12-12T10:10:52.648Z,99.90
2022-12-12T10:11:55.623Z,99.90
2022-12-12T10:12:58.493Z,99.90
2022-12-12T10:14:03.837Z,99.90
2022-12-12T10:15:08.542Z,99.90
2022-12-12T10:16:14.444Z,87.50
2022-12-12T10:17:22.795Z,95.00
2022-12-12T10:18:31.952Z,62.60
2022-12-12T10:19:42.347Z,92.10
2022-12-12T10:20:49.000Z,99.90
2022-12-12T10:21:52.901Z,99.90
2022-12-12T10:23:13.329Z,99.90
2022-12-12T10:24:32.722Z,99.90
2022-12-12T10:25:49.718Z,99.90
2022-12-12T10:26:52.861Z,1.00
2022-12-12T10:28:09.678Z,99.90
2022-12-12T10:29:22.870Z,1.00
2022-12-12T10:30:24.591Z,1.00
2022-12-12T10:31:54.774Z,1.00
2022-12-12T10:33:09.659Z,99.90
2022-12-12T10:34:51.850Z,99.90
2022-12-12T10:36:08.975Z,99.90
2022-12-12T10:37:41.563Z,99.90
2022-12-12T10:39:31.173Z,99.90
2022-12-12T10:40:46.383Z,99.90
2022-12-12T10:42:03.374Z,99.90
2022-12-12T10:43:19.125Z,99.90
2022-12-12T10:44:37.796Z,99.90
2022-12-12T10:45:51.345Z,99.90
2022-12-12T10:47:02.212Z,99.90
2022-12-12T10:48:04.486Z,99.90
2022-12-12T10:49:17.457Z,99.90
2022-12-12T10:50:54.139Z,99.90
2022-12-12T10:51:57.630Z,22.00
2022-12-12T10:53:00.286Z,28.30
2022-12-12T10:54:05.772Z,1.00
2022-12-12T10:55:34.567Z,1.00
2022-12-12T10:56:36.192Z,1.00
2022-12-12T10:57:37.762Z,1.00
2022-12-12T10:58:41.902Z,1.00
2022-12-12T10:59:52.222Z,99.90
2022-12-12T11:01:02.515Z,99.90
2022-12-12T11:02:11.445Z,99.90
2022-12-12T11:03:22.343Z,99.90
2022-12-12T11:04:25.375Z,99.90
2022-12-12T11:05:29.645Z,99.90
2022-12-12T11:06:39.805Z,68.80
2022-12-12T11:07:44.976Z,28.10
2022-12-12T11:09:23.417Z,1.00
2022-12-12T11:10:34.557Z,13.20
2022-12-12T11:11:36.547Z,48.50
2022-12-12T11:12:38.250Z,27.80
2022-12-12T11:14:03.888Z,99.90
2022-12-12T11:15:16.092Z,95.10
2022-12-12T11:16:22.217Z,99.90
2022-12-12T11:17:29.822Z,1.00
2022-12-12T11:18:31.634Z,1.00
2022-12-12T11:19:38.547Z,1.00
2022-12-12T11:20:49.587Z,1.00
2022-12-12T11:21:53.241Z,1.00
2022-12-12T11:22:56.756Z,1.00
2022-12-12T11:23:59.444Z,1.00
2022-12-12T11:25:01.292Z,1.00
2022-12-12T11:26:11.321Z,1.00
2022-12-12T11:27:23.615Z,1.00
2022-12-12T11:28:29.816Z,99.90
2022-12-12T11:29:40.275Z,99.90
2022-12-12T11:30:44.029Z,1.00
2022-12-12T11:31:45.809Z,1.00
2022-12-12T11:32:50.054Z,1.00
2022-12-12T11:33:55.728Z,99.90
2022-12-12T11:35:01.570Z,1.00
2022-12-12T11:36:06.407Z,1.00
2022-12-12T11:37:19.183Z,99.90
2022-12-12T11:38:26.100Z,99.90
2022-12-12T11:39:44.023Z,99.90
2022-12-12T11:40:55.497Z,99.90
2022-12-12T11:42:25.917Z,99.90
2022-12-12T11:43:50.390Z,99.90
2022-12-12T11:44:59.197Z,99.90
2022-12-12T11:46:25.534Z,99.90
2022-12-12T11:47:41.825Z,84.30
2022-12-12T11:48:47.340Z,78.70
2022-12-12T11:49:51.876Z,1.00
2022-12-12T11:50:53.526Z,1.00
2022-12-12T11:51:56.378Z,1.00
2022-12-12T11:53:01.556Z,1.00
2022-12-12T11:54:24.585Z,1.00
2022-12-12T11:55:54.420Z,1.00
2022-12-12T11:57:04.628Z,1.00
2022-12-12T11:58:22.406Z,1.00
2022-12-12T11:59:45.802Z,1.00
2022-12-12T12:00:54.386Z,1.00
2022-12-12T12:02:22.547Z,1.00
2022-12-12T12:03:51.953Z,1.00
2022-12-12T12:05:12.662Z,1.00
2022-12-12T12:06:33.510Z,1.00
2022-12-12T12:08:12.123Z,1.00
2022-12-12T12:09:44.570Z,1.00
2022-12-12T12:10:52.149Z,1.00
2022-12-12T12:12:22.879Z,1.00
2022-12-12T12:13:40.754Z,1.00
2022-12-12T12:14:56.859Z,1.00
2022-12-12T12:16:04.479Z,1.00
2022-12-12T12:17:12.253Z,1.00
2022-12-12T12:18:16.963Z,1.00
2022-12-12T12:19:43.273Z,1.00
2022-12-12T12:21:21.219Z,1.00
2022-12-12T12:22:31.896Z,1.00
2022-12-12T12:23:51.988Z,1.00
2022-12-12T12:25:24.976Z,1.00
2022-12-12T12:26:52.229Z,1.00
2022-12-12T12:28:23.295Z,1.00
2022-12-12T12:30:03.259Z,1.00
2022-12-12T12:31:11.961Z,1.00
2022-12-12T12:32:36.724Z,1.00
2022-12-12T12:34:04.604Z,1.00
2022-12-12T12:35:30.832Z,1.00
2022-12-12T12:37:02.517Z,1.00
2022-12-12T12:38:26.888Z,1.00
2022-12-12T12:39:53.051Z,1.00
2022-12-12T12:41:34.723Z,1.00
2022-12-12T12:42:36.679Z,1.00
2022-12-12T12:44:09.779Z,1.00
2022-12-12T12:45:30.206Z,1.00
2022-12-12T12:46:53.519Z,1.00
2022-12-12T12:48:08.815Z,1.00
2022-12-12T12:49:38.561Z,1.00
2022-12-12T12:51:02.842Z,1.00
2022-12-12T12:52:15.007Z,1.00
2022-12-12T12:53:27.141Z,1.00
2022-12-12T12:54:32.415Z,1.00
2022-12-12T12:55:40.626Z,1.00
2022-12-12T12:56:56.189Z,1.00
2022-12-12T12:58:01.905Z,1.00
2022-12-12T12:59:22.833Z,1.00
2022-12-12T13:00:28.767Z,1.00
2022-12-12T13:01:41.247Z,1.00
2022-12-12T13:03:17.258Z,1.00
2022-12-12T13:04:31.397Z,1.00
2022-12-12T13:05:51.199Z,1.00
2022-12-12T13:07:04.274Z,1.00
2022-12-12T13:08:32.302Z,80.00
2022-12-12T13:09:43.941Z,63.00
2022-12-12T13:10:52.829Z,99.90
2022-12-12T13:12:01.241Z,99.90
2022-12-12T13:13:07.290Z,99.90
2022-12-12T13:14:41.371Z,99.90
2022-12-12T13:16:05.784Z,99.90
2022-12-12T13:17:14.254Z,99.90
2022-12-12T13:18:17.866Z,99.90
2022-12-12T13:19:35.690Z,1.00
2022-12-12T13:20:51.883Z,1.00
2022-12-12T13:22:21.925Z,1.00
2022-12-12T13:23:39.259Z,1.00
2022-12-12T13:24:59.607Z,1.00
2022-12-12T13:26:27.636Z,1.00
2022-12-12T13:27:48.040Z,1.00
2022-12-12T13:28:58.421Z,99.90
2022-12-12T13:30:21.197Z,1.00
2022-12-12T13:31:55.151Z,1.00
2022-12-12T13:33:17.839Z,99.90
2022-12-12T13:34:24.171Z,99.90
2022-12-12T13:35:30.796Z,91.10
2022-12-12T13:36:36.581Z,1.00
2022-12-12T13:37:47.869Z,1.00
2022-12-12T13:38:55.602Z,1.00
2022-12-12T13:40:07.819Z,1.00
2022-12-12T13:41:10.395Z,1.00
2022-12-12T13:42:14.019Z,1.00
2022-12-12T13:43:34.035Z,1.00
2022-12-12T13:44:47.267Z,1.00
2022-12-12T13:45:48.887Z,1.00
2022-12-12T13:46:50.821Z,1.00
2022-12-12T13:47:55.181Z,1.00
2022-12-12T13:49:06.707Z,1.00
2022-12-12T13:50:11.552Z,1.00
2022-12-12T13:51:28.522Z,1.00
2022-12-12T13:52:35.399Z,1.00
2022-12-12T13:53:37.058Z,1.00
2022-12-12T13:54:46.536Z,1.00
2022-12-12T13:55:48.299Z,1.00
2022-12-12T13:56:52.710Z,1.00
2022-12-12T13:58:02.065Z,1.00
2022-12-12T13:59:27.666Z,1.00
2022-12-12T14:00:53.867Z,1.00
2022-12-12T14:02:03.774Z,1.00
2022-12-12T14:03:11.528Z,1.00
2022-12-12T14:04:33.172Z,1.00
2022-12-12T14:05:43.229Z,1.00
2022-12-12T14:06:44.972Z,1.00
2022-12-12T14:08:10.009Z,1.00
2022-12-12T14:09:21.221Z,1.00
2022-12-12T14:10:31.635Z,11.90
2022-12-12T14:11:36.736Z,52.70
2022-12-12T14:12:39.696Z,99.90
2022-12-12T14:13:45.853Z,99.90
2022-12-12T14:14:57.608Z,99.90
2022-12-12T14:16:01.617Z,99.90
2022-12-12T14:17:03.803Z,99.90
2022-12-12T14:18:05.496Z,99.90
2022-12-12T14:19:20.781Z,99.90
2022-12-12T14:20:43.487Z,1.00
2022-12-12T14:21:47.852Z,1.00
2022-12-12T14:22:49.567Z,1.00
2022-12-12T14:23:52.798Z,1.00
2022-12-12T14:25:07.828Z,1.00
2022-12-12T14:26:27.589Z,1.00
2022-12-12T14:28:03.094Z,1.00
2022-12-12T14:29:16.667Z,1.00
2022-12-12T14:30:20.605Z,1.00
2022-12-12T14:31:23.765Z,1.00
2022-12-12T14:32:48.758Z,1.00
2022-12-12T14:34:22.979Z,1.00
2022-12-12T14:35:43.265Z,1.00
2022-12-12T14:36:53.707Z,1.00
2022-12-12T14:38:20.892Z,1.00
2022-12-12T14:39:55.157Z,99.90
2022-12-12T14:41:03.450Z,1.00
2022-12-12T14:42:20.539Z,1.00
2022-12-12T14:43:29.827Z,1.00
2022-12-12T14:44:36.853Z,1.00
2022-12-12T14:45:49.464Z,1.00
2022-12-12T14:46:51.190Z,1.00
2022-12-12T14:48:23.927Z,1.00
2022-12-12T14:49:25.828Z,99.90
2022-12-12T14:50:27.468Z,99.90
2022-12-12T14:51:33.281Z,99.90
2022-12-12T14:52:35.068Z,1.00
2022-12-12T14:53:36.624Z,1.00
2022-12-12T14:54:39.324Z,1.00
2022-12-12T14:56:11.403Z,1.00